PWSweather.com
Personal Weather Stations
Station Observations
KMDSOLOM1
solomons, Solomons, MD 20688

solomonsSolomons, MD 20688

Lat: 38.32, Lon: -76.45

Elevation: 5

Station Type:

http://www.act-us.info/weather

High Low Average
Temperature 54.5°F12.5°C 41.5°F5.3°C 46.8°F8.2°C
Dew Point 41.3°F5.2°C 27.4°F-2.6°C 36.2°F2.3°C
Winds 38.0 mph 61.2 kmh 3.0 mph 4.8 kmh 13.0 mph SW20.9 kmh SW
Wind Gusts 41.0 mph66.0 kmh 9.0 mph14.5 kmh 23.0 mph37.0 kmh
Humidity 93% 48% 68%
Pressure 29.78 in1008.5 mb 29.42 in996.3 mb -
Precipitation 0.00 in0.0 mm - -
Hour Temp Dew Point Humidity Winds Wind Gusts Pressure Precip Precip Rate Daily Precip Total
12:00 AM 42.1°F5.6°C 40.5°F4.7°C 94% 15.0 mph SSW24.1 kmh SSW 31.0 mph49.9 kmh 29.43 in996.6 mb 0.00 in0.0 mm 0.00 in0.0 mm 0.00 in0.0 mm
12:05 AM 42.2°F5.7°C 40.6°F4.8°C 94% 14.0 mph SSW22.5 kmh SSW 31.0 mph49.9 kmh 29.43 in996.6 mb 0.00 in0.0 mm 0.00 in0.0 mm 0.00 in0.0 mm
12:10 AM 42.3°F5.7°C 40.7°F4.8°C 94% 12.0 mph SSW19.3 kmh SSW 20.0 mph32.2 kmh 29.43 in996.6 mb 0.00 in0.0 mm 0.00 in0.0 mm 0.00 in0.0 mm
12:15 AM 42.3°F5.7°C 40.7°F4.8°C 94% 15.0 mph SSW24.1 kmh SSW 21.0 mph33.8 kmh 29.43 in996.6 mb 0.00 in0.0 mm 0.00 in0.0 mm 0.00 in0.0 mm
12:20 AM 42.4°F5.8°C 40.8°F4.9°C 94% 8.0 mph SW12.9 kmh SW 21.0 mph33.8 kmh 29.43 in996.6 mb 0.00 in0.0 mm 0.00 in0.0 mm 0.00 in0.0 mm
12:25 AM 42.5°F5.8°C 40.6°F4.8°C 93% 26.0 mph SSW41.8 kmh SSW 26.0 mph41.8 kmh 29.42 in996.3 mb 0.00 in0.0 mm 0.00 in0.0 mm 0.00 in0.0 mm
12:30 AM 42.6°F5.9°C 41.0°F5.0°C 94% 10.0 mph SSW16.1 kmh SSW 26.0 mph41.8 kmh 29.42 in996.3 mb 0.00 in0.0 mm 0.00 in0.0 mm 0.00 in0.0 mm
12:35 AM 42.6°F5.9°C 40.7°F4.8°C 93% 12.0 mph S19.3 kmh S 26.0 mph41.8 kmh 29.43 in996.6 mb 0.00 in0.0 mm 0.00 in0.0 mm 0.00 in0.0 mm
12:40 AM 42.6°F5.9°C 40.7°F4.8°C 93% 16.0 mph SSW25.7 kmh SSW 21.0 mph33.8 kmh 29.42 in996.3 mb 0.00 in0.0 mm 0.00 in0.0 mm 0.00 in0.0 mm
12:45 AM 42.6°F5.9°C 40.7°F4.8°C 93% 16.0 mph SSW25.7 kmh SSW 26.0 mph41.8 kmh 29.42 in996.3 mb 0.00 in0.0 mm 0.00 in0.0 mm 0.00 in0.0 mm
12:50 AM 42.6°F5.9°C 40.7°F4.8°C 93% 23.0 mph SW37.0 kmh SW 26.0 mph41.8 kmh 29.42 in996.3 mb 0.00 in0.0 mm 0.00 in0.0 mm 0.00 in0.0 mm
12:55 AM 42.6°F5.9°C 40.7°F4.8°C 93% 8.0 mph SSW12.9 kmh SSW 17.0 mph27.4 kmh 29.42 in996.3 mb 0.01 in0.3 mm 0.12 in3.0 mm 0.01 in0.3 mm
01:00 AM 42.6°F5.9°C 40.7°F4.8°C 93% 14.0 mph SW22.5 kmh SW 22.0 mph35.4 kmh 29.42 in996.3 mb 0.01 in0.3 mm 0.00 in0.0 mm 0.01 in0.3 mm
01:05 AM 42.7°F5.9°C 40.8°F4.9°C 93% 12.0 mph SW19.3 kmh SW 24.0 mph38.6 kmh 29.42 in996.3 mb 0.01 in0.3 mm 0.00 in0.0 mm 0.01 in0.3 mm
01:10 AM 42.8°F6.0°C 40.9°F4.9°C 93% 19.0 mph SSW30.6 kmh SSW 22.0 mph35.4 kmh 29.42 in996.3 mb 0.01 in0.3 mm 0.00 in0.0 mm 0.01 in0.3 mm
01:15 AM 42.9°F6.1°C 41.0°F5.0°C 93% 18.0 mph SW29.0 kmh SW 22.0 mph35.4 kmh 29.42 in996.3 mb 0.01 in0.3 mm 0.00 in0.0 mm 0.01 in0.3 mm
01:20 AM 42.9°F6.1°C 41.0°F5.0°C 93% 15.0 mph SW24.1 kmh SW 24.0 mph38.6 kmh 29.42 in996.3 mb 0.01 in0.3 mm 0.00 in0.0 mm 0.01 in0.3 mm
01:25 AM 43.0°F6.1°C 41.1°F5.1°C 93% 23.0 mph S37.0 kmh S 23.0 mph37.0 kmh 29.42 in996.3 mb 0.01 in0.3 mm 0.00 in0.0 mm 0.01 in0.3 mm
01:30 AM 43.0°F6.1°C 41.1°F5.1°C 93% 17.0 mph SW27.4 kmh SW 23.0 mph37.0 kmh 29.42 in996.3 mb 0.01 in0.3 mm 0.00 in0.0 mm 0.01 in0.3 mm
01:35 AM 43.1°F6.2°C 41.2°F5.1°C 93% 16.0 mph SW25.7 kmh SW 23.0 mph37.0 kmh 29.42 in996.3 mb 0.01 in0.3 mm 0.00 in0.0 mm 0.01 in0.3 mm
01:40 AM 43.1°F6.2°C 41.2°F5.1°C 93% 8.0 mph SW12.9 kmh SW 15.0 mph24.1 kmh 29.42 in996.3 mb 0.01 in0.3 mm 0.00 in0.0 mm 0.01 in0.3 mm
01:45 AM 43.1°F6.2°C 41.2°F5.1°C 93% 12.0 mph SSW19.3 kmh SSW 25.0 mph40.2 kmh 29.42 in996.3 mb 0.01 in0.3 mm 0.00 in0.0 mm 0.01 in0.3 mm
01:50 AM 43.1°F6.2°C 41.2°F5.1°C 93% 11.0 mph SSW17.7 kmh SSW 25.0 mph40.2 kmh 29.42 in996.3 mb 0.01 in0.3 mm 0.00 in0.0 mm 0.01 in0.3 mm
01:55 AM 43.2°F6.2°C 41.3°F5.2°C 93% 11.0 mph SW17.7 kmh SW 22.0 mph35.4 kmh 29.42 in996.3 mb 0.00 in0.0 mm 0.00 in0.0 mm 0.01 in0.3 mm
02:00 AM 43.2°F6.2°C 41.3°F5.2°C 93% 14.0 mph SW22.5 kmh SW 24.0 mph38.6 kmh 29.42 in996.3 mb 0.00 in0.0 mm 0.00 in0.0 mm 0.01 in0.3 mm
02:05 AM 43.2°F6.2°C 41.3°F5.2°C 93% 9.0 mph SW14.5 kmh SW 24.0 mph38.6 kmh 29.42 in996.3 mb 0.00 in0.0 mm 0.00 in0.0 mm 0.01 in0.3 mm
02:10 AM 43.2°F6.2°C 41.0°F5.0°C 92% 13.0 mph SW20.9 kmh SW 20.0 mph32.2 kmh 29.43 in996.6 mb 0.00 in0.0 mm 0.00 in0.0 mm 0.01 in0.3 mm
02:15 AM 43.2°F6.2°C 41.0°F5.0°C 92% 22.0 mph SW35.4 kmh SW 28.0 mph45.1 kmh 29.43 in996.6 mb 0.01 in0.3 mm 0.12 in3.0 mm 0.02 in0.5 mm
02:20 AM 43.1°F6.2°C 40.9°F4.9°C 92% 13.0 mph SSW20.9 kmh SSW 28.0 mph45.1 kmh 29.43 in996.6 mb 0.01 in0.3 mm 0.00 in0.0 mm 0.02 in0.5 mm
02:25 AM 43.1°F6.2°C 40.9°F4.9°C 92% 20.0 mph SW32.2 kmh SW 21.0 mph33.8 kmh 29.43 in996.6 mb 0.01 in0.3 mm 0.00 in0.0 mm 0.02 in0.5 mm
02:30 AM 43.1°F6.2°C 40.9°F4.9°C 92% 13.0 mph SW20.9 kmh SW 23.0 mph37.0 kmh 29.43 in996.6 mb 0.01 in0.3 mm 0.00 in0.0 mm 0.02 in0.5 mm
02:35 AM 43.1°F6.2°C 40.9°F4.9°C 92% 13.0 mph SW20.9 kmh SW 23.0 mph37.0 kmh 29.43 in996.6 mb 0.01 in0.3 mm 0.00 in0.0 mm 0.02 in0.5 mm
02:40 AM 43.1°F6.2°C 40.9°F4.9°C 92% 19.0 mph SSW30.6 kmh SSW 19.0 mph30.6 kmh 29.43 in996.6 mb 0.02 in0.5 mm 0.12 in3.0 mm 0.03 in0.8 mm
02:45 AM 43.1°F6.2°C 40.9°F4.9°C 92% 15.0 mph SW24.1 kmh SW 25.0 mph40.2 kmh 29.44 in997.0 mb 0.02 in0.5 mm 0.00 in0.0 mm 0.03 in0.8 mm
02:50 AM 43.1°F6.2°C 40.9°F4.9°C 92% 18.0 mph SW29.0 kmh SW 25.0 mph40.2 kmh 29.44 in997.0 mb 0.02 in0.5 mm 0.00 in0.0 mm 0.03 in0.8 mm
02:55 AM 43.1°F6.2°C 40.9°F4.9°C 92% 16.0 mph SW25.7 kmh SW 18.0 mph29.0 kmh 29.44 in997.0 mb 0.02 in0.5 mm 0.00 in0.0 mm 0.03 in0.8 mm
03:00 AM 43.2°F6.2°C 41.0°F5.0°C 92% 14.0 mph SW22.5 kmh SW 21.0 mph33.8 kmh 29.44 in997.0 mb 0.02 in0.5 mm 0.00 in0.0 mm 0.03 in0.8 mm
03:05 AM 43.2°F6.2°C 40.8°F4.9°C 91% 11.0 mph SW17.7 kmh SW 21.0 mph33.8 kmh 29.44 in997.0 mb 0.02 in0.5 mm 0.00 in0.0 mm 0.03 in0.8 mm
03:10 AM 43.2°F6.2°C 40.8°F4.9°C 91% 14.0 mph SW22.5 kmh SW 23.0 mph37.0 kmh 29.44 in997.0 mb 0.02 in0.5 mm 0.00 in0.0 mm 0.03 in0.8 mm
03:15 AM 43.3°F6.3°C 40.9°F4.9°C 91% 10.0 mph SSW16.1 kmh SSW 23.0 mph37.0 kmh 29.44 in997.0 mb 0.02 in0.5 mm 0.00 in0.0 mm 0.03 in0.8 mm
03:20 AM 43.4°F6.3°C 41.0°F5.0°C 91% 15.0 mph SW24.1 kmh SW 25.0 mph40.2 kmh 29.44 in997.0 mb 0.02 in0.5 mm 0.00 in0.0 mm 0.03 in0.8 mm
03:25 AM 43.5°F6.4°C 40.8°F4.9°C 90% 13.0 mph SW20.9 kmh SW 20.0 mph32.2 kmh 29.44 in997.0 mb 0.01 in0.3 mm 0.00 in0.0 mm 0.03 in0.8 mm
03:30 AM 43.6°F6.4°C 40.9°F4.9°C 90% 9.0 mph SW14.5 kmh SW 28.0 mph45.1 kmh 29.44 in997.0 mb 0.01 in0.3 mm 0.00 in0.0 mm 0.03 in0.8 mm
03:35 AM 43.7°F6.5°C 40.7°F4.8°C 89% 19.0 mph SSW30.6 kmh SSW 28.0 mph45.1 kmh 29.44 in997.0 mb 0.01 in0.3 mm 0.00 in0.0 mm 0.03 in0.8 mm
03:40 AM 43.8°F6.6°C 40.8°F4.9°C 89% 19.0 mph SSW30.6 kmh SSW 24.0 mph38.6 kmh 29.45 in997.3 mb 0.00 in0.0 mm 0.00 in0.0 mm 0.03 in0.8 mm
03:45 AM 43.9°F6.6°C 40.9°F4.9°C 89% 14.0 mph SW22.5 kmh SW 24.0 mph38.6 kmh 29.45 in997.3 mb 0.00 in0.0 mm 0.00 in0.0 mm 0.03 in0.8 mm
03:50 AM 44.0°F6.7°C 41.0°F5.0°C 89% 20.0 mph SW32.2 kmh SW 25.0 mph40.2 kmh 29.45 in997.3 mb 0.00 in0.0 mm 0.00 in0.0 mm 0.03 in0.8 mm
03:55 AM 44.1°F6.7°C 40.8°F4.9°C 88% 16.0 mph SW25.7 kmh SW 21.0 mph33.8 kmh 29.45 in997.3 mb 0.00 in0.0 mm 0.00 in0.0 mm 0.03 in0.8 mm
04:00 AM 44.3°F6.8°C 41.0°F5.0°C 88% 17.0 mph SW27.4 kmh SW 29.0 mph46.7 kmh 29.45 in997.3 mb 0.00 in0.0 mm 0.00 in0.0 mm 0.03 in0.8 mm
04:05 AM 44.4°F6.9°C 40.8°F4.9°C 87% 12.0 mph SSW19.3 kmh SSW 29.0 mph46.7 kmh 29.45 in997.3 mb 0.00 in0.0 mm 0.00 in0.0 mm 0.03 in0.8 mm
04:10 AM 44.5°F6.9°C 40.9°F4.9°C 87% 11.0 mph SSW17.7 kmh SSW 16.0 mph25.7 kmh 29.45 in997.3 mb 0.00 in0.0 mm 0.00 in0.0 mm 0.03 in0.8 mm
04:15 AM 44.5°F6.9°C 40.9°F4.9°C 87% 12.0 mph SSW19.3 kmh SSW 22.0 mph35.4 kmh 29.45 in997.3 mb 0.00 in0.0 mm 0.00 in0.0 mm 0.03 in0.8 mm
04:20 AM 44.5°F6.9°C 40.9°F4.9°C 87% 10.0 mph SW16.1 kmh SW 27.0 mph43.5 kmh 29.45 in997.3 mb 0.00 in0.0 mm 0.00 in0.0 mm 0.03 in0.8 mm
04:25 AM 44.7°F7.1°C 40.8°F4.9°C 86% 13.0 mph SSW20.9 kmh SSW 18.0 mph29.0 kmh 29.45 in997.3 mb 0.00 in0.0 mm 0.00 in0.0 mm 0.03 in0.8 mm
04:30 AM 44.7°F7.1°C 40.8°F4.9°C 86% 19.0 mph SSW30.6 kmh SSW 22.0 mph35.4 kmh 29.45 in997.3 mb 0.00 in0.0 mm 0.00 in0.0 mm 0.03 in0.8 mm
04:35 AM 44.7°F7.1°C 40.8°F4.9°C 86% 10.0 mph SW16.1 kmh SW 22.0 mph35.4 kmh 29.45 in997.3 mb 0.00 in0.0 mm 0.00 in0.0 mm 0.03 in0.8 mm
04:40 AM 44.9°F7.2°C 41.0°F5.0°C 86% 9.0 mph SW14.5 kmh SW 16.0 mph25.7 kmh 29.46 in997.6 mb 0.00 in0.0 mm 0.00 in0.0 mm 0.03 in0.8 mm
04:45 AM 45.0°F7.2°C 40.8°F4.9°C 85% 12.0 mph SW19.3 kmh SW 26.0 mph41.8 kmh 29.45 in997.3 mb 0.00 in0.0 mm 0.00 in0.0 mm 0.03 in0.8 mm
04:50 AM 45.2°F7.3°C 41.0°F5.0°C 85% 9.0 mph SSW14.5 kmh SSW 26.0 mph41.8 kmh 29.46 in997.6 mb 0.00 in0.0 mm 0.00 in0.0 mm 0.03 in0.8 mm
04:55 AM 45.3°F7.4°C 41.1°F5.1°C 85% 10.0 mph SW16.1 kmh SW 21.0 mph33.8 kmh 29.46 in997.6 mb 0.00 in0.0 mm 0.00 in0.0 mm 0.03 in0.8 mm
05:00 AM 45.5°F7.5°C 41.0°F5.0°C 84% 17.0 mph SSW27.4 kmh SSW 21.0 mph33.8 kmh 29.45 in997.3 mb 0.00 in0.0 mm 0.00 in0.0 mm 0.03 in0.8 mm
05:05 AM 45.7°F7.6°C 41.2°F5.1°C 84% 11.0 mph SW17.7 kmh SW 31.0 mph49.9 kmh 29.46 in997.6 mb 0.00 in0.0 mm 0.00 in0.0 mm 0.03 in0.8 mm
05:10 AM 45.8°F7.7°C 41.3°F5.2°C 84% 11.0 mph S17.7 kmh S 20.0 mph32.2 kmh 29.46 in997.6 mb 0.00 in0.0 mm 0.00 in0.0 mm 0.03 in0.8 mm
05:15 AM 45.9°F7.7°C 41.0°F5.0°C 83% 11.0 mph S17.7 kmh S 22.0 mph35.4 kmh 29.47 in998.0 mb 0.00 in0.0 mm 0.00 in0.0 mm 0.03 in0.8 mm
05:20 AM 46.0°F7.8°C 41.1°F5.1°C 83% 13.0 mph SW20.9 kmh SW 22.0 mph35.4 kmh 29.46 in997.6 mb 0.00 in0.0 mm 0.00 in0.0 mm 0.03 in0.8 mm
05:25 AM 46.1°F7.8°C 41.2°F5.1°C 83% 18.0 mph SSW29.0 kmh SSW 18.0 mph29.0 kmh 29.46 in997.6 mb 0.00 in0.0 mm 0.00 in0.0 mm 0.03 in0.8 mm
05:30 AM 46.1°F7.8°C 40.9°F4.9°C 82% 11.0 mph SSW17.7 kmh SSW 24.0 mph38.6 kmh 29.47 in998.0 mb 0.00 in0.0 mm 0.00 in0.0 mm 0.03 in0.8 mm
05:35 AM 46.1°F7.8°C 41.2°F5.1°C 83% 9.0 mph SSW14.5 kmh SSW 24.0 mph38.6 kmh 29.47 in998.0 mb 0.00 in0.0 mm 0.00 in0.0 mm 0.03 in0.8 mm
05:40 AM 46.2°F7.9°C 41.0°F5.0°C 82% 18.0 mph SSW29.0 kmh SSW 34.0 mph54.7 kmh 29.47 in998.0 mb 0.00 in0.0 mm 0.00 in0.0 mm 0.03 in0.8 mm
05:45 AM 46.1°F7.8°C 40.9°F4.9°C 82% 14.0 mph SSW22.5 kmh SSW 34.0 mph54.7 kmh 29.48 in998.3 mb 0.00 in0.0 mm 0.00 in0.0 mm 0.03 in0.8 mm
05:50 AM 46.1°F7.8°C 41.2°F5.1°C 83% 12.0 mph SW19.3 kmh SW 34.0 mph54.7 kmh 29.48 in998.3 mb 0.00 in0.0 mm 0.00 in0.0 mm 0.03 in0.8 mm
05:55 AM 46.1°F7.8°C 41.2°F5.1°C 83% 8.0 mph S12.9 kmh S 12.0 mph19.3 kmh 29.48 in998.3 mb 0.00 in0.0 mm 0.00 in0.0 mm 0.03 in0.8 mm
06:00 AM 46.0°F7.8°C 41.1°F5.1°C 83% 8.0 mph SSW12.9 kmh SSW 21.0 mph33.8 kmh 29.49 in998.6 mb 0.00 in0.0 mm 0.00 in0.0 mm 0.03 in0.8 mm
06:05 AM 46.0°F7.8°C 41.1°F5.1°C 83% 12.0 mph SSW19.3 kmh SSW 26.0 mph41.8 kmh 29.49 in998.6 mb 0.00 in0.0 mm 0.00 in0.0 mm 0.03 in0.8 mm
06:10 AM 46.0°F7.8°C 41.1°F5.1°C 83% 8.0 mph SW12.9 kmh SW 17.0 mph27.4 kmh 29.49 in998.6 mb 0.00 in0.0 mm 0.00 in0.0 mm 0.03 in0.8 mm
06:15 AM 45.9°F7.7°C 41.0°F5.0°C 83% 8.0 mph SSW12.9 kmh SSW 22.0 mph35.4 kmh 29.49 in998.6 mb 0.00 in0.0 mm 0.00 in0.0 mm 0.03 in0.8 mm
06:20 AM 45.9°F7.7°C 41.0°F5.0°C 83% 13.0 mph SSW20.9 kmh SSW 22.0 mph35.4 kmh 29.50 in999.0 mb 0.00 in0.0 mm 0.00 in0.0 mm 0.03 in0.8 mm
06:25 AM 45.8°F7.7°C 40.9°F4.9°C 83% 8.0 mph SSW12.9 kmh SSW 12.0 mph19.3 kmh 29.49 in998.6 mb 0.00 in0.0 mm 0.00 in0.0 mm 0.03 in0.8 mm
06:30 AM 45.7°F7.6°C 41.2°F5.1°C 84% 8.0 mph SW12.9 kmh SW 18.0 mph29.0 kmh 29.49 in998.6 mb 0.00 in0.0 mm 0.00 in0.0 mm 0.03 in0.8 mm
06:35 AM 45.7°F7.6°C 40.8°F4.9°C 83% 8.0 mph SSW12.9 kmh SSW 22.0 mph35.4 kmh 29.50 in999.0 mb 0.00 in0.0 mm 0.00 in0.0 mm 0.03 in0.8 mm
06:40 AM 45.7°F7.6°C 40.8°F4.9°C 83% 12.0 mph SW19.3 kmh SW 27.0 mph43.5 kmh 29.50 in999.0 mb 0.00 in0.0 mm 0.00 in0.0 mm 0.03 in0.8 mm
06:45 AM 45.8°F7.7°C 40.9°F4.9°C 83% 10.0 mph SSW16.1 kmh SSW 27.0 mph43.5 kmh 29.50 in999.0 mb 0.00 in0.0 mm 0.00 in0.0 mm 0.03 in0.8 mm
06:50 AM 45.8°F7.7°C 40.9°F4.9°C 83% 11.0 mph SSW17.7 kmh SSW 27.0 mph43.5 kmh 29.50 in999.0 mb 0.00 in0.0 mm 0.00 in0.0 mm 0.03 in0.8 mm
06:55 AM 45.8°F7.7°C 40.9°F4.9°C 83% 17.0 mph SW27.4 kmh SW 18.0 mph29.0 kmh 29.50 in999.0 mb 0.00 in0.0 mm 0.00 in0.0 mm 0.03 in0.8 mm
07:00 AM 45.8°F7.7°C 40.6°F4.8°C 82% 9.0 mph SW14.5 kmh SW 21.0 mph33.8 kmh 29.50 in999.0 mb 0.00 in0.0 mm 0.00 in0.0 mm 0.03 in0.8 mm
07:05 AM 46.0°F7.8°C 40.8°F4.9°C 82% 14.0 mph S22.5 kmh S 22.0 mph35.4 kmh 29.50 in999.0 mb 0.00 in0.0 mm 0.00 in0.0 mm 0.03 in0.8 mm
07:10 AM 46.1°F7.8°C 40.6°F4.8°C 81% 12.0 mph SSW19.3 kmh SSW 18.0 mph29.0 kmh 29.50 in999.0 mb 0.00 in0.0 mm 0.00 in0.0 mm 0.03 in0.8 mm
07:15 AM 46.2°F7.9°C 40.4°F4.7°C 80% 19.0 mph SW30.6 kmh SW 28.0 mph45.1 kmh 29.50 in999.0 mb 0.00 in0.0 mm 0.00 in0.0 mm 0.03 in0.8 mm
07:20 AM 46.3°F7.9°C 40.2°F4.6°C 79% 12.0 mph SW19.3 kmh SW 28.0 mph45.1 kmh 29.50 in999.0 mb 0.00 in0.0 mm 0.00 in0.0 mm 0.03 in0.8 mm
07:25 AM 46.3°F7.9°C 39.8°F4.3°C 78% 13.0 mph SW20.9 kmh SW 17.0 mph27.4 kmh 29.50 in999.0 mb 0.00 in0.0 mm 0.00 in0.0 mm 0.03 in0.8 mm
07:30 AM 46.4°F8.0°C 39.9°F4.4°C 78% 18.0 mph SSW29.0 kmh SSW 21.0 mph33.8 kmh 29.50 in999.0 mb 0.00 in0.0 mm 0.00 in0.0 mm 0.03 in0.8 mm
07:35 AM 46.4°F8.0°C 39.6°F4.2°C 77% 14.0 mph SSW22.5 kmh SSW 22.0 mph35.4 kmh 29.50 in999.0 mb 0.00 in0.0 mm 0.00 in0.0 mm 0.03 in0.8 mm
07:40 AM 46.5°F8.1°C 39.7°F4.3°C 77% 8.0 mph SSW12.9 kmh SSW 24.0 mph38.6 kmh 29.51 in999.3 mb 0.00 in0.0 mm 0.00 in0.0 mm 0.03 in0.8 mm
07:45 AM 46.5°F8.1°C 39.7°F4.3°C 77% 11.0 mph SSW17.7 kmh SSW 24.0 mph38.6 kmh 29.51 in999.3 mb 0.00 in0.0 mm 0.00 in0.0 mm 0.03 in0.8 mm
07:50 AM 46.5°F8.1°C 39.4°F4.1°C 76% 11.0 mph SSW17.7 kmh SSW 24.0 mph38.6 kmh 29.51 in999.3 mb 0.00 in0.0 mm 0.00 in0.0 mm 0.03 in0.8 mm
07:55 AM 46.5°F8.1°C 39.0°F3.9°C 75% 12.0 mph S19.3 kmh S 22.0 mph35.4 kmh 29.51 in999.3 mb 0.00 in0.0 mm 0.00 in0.0 mm 0.03 in0.8 mm
08:00 AM 46.6°F8.1°C 39.1°F3.9°C 75% 15.0 mph SW24.1 kmh SW 24.0 mph38.6 kmh 29.51 in999.3 mb 0.00 in0.0 mm 0.00 in0.0 mm 0.03 in0.8 mm
08:05 AM 46.7°F8.2°C 38.9°F3.8°C 74% 14.0 mph SW22.5 kmh SW 24.0 mph38.6 kmh 29.52 in999.7 mb 0.00 in0.0 mm 0.00 in0.0 mm 0.03 in0.8 mm
08:10 AM 46.8°F8.2°C 39.0°F3.9°C 74% 16.0 mph SSW25.7 kmh SSW 16.0 mph25.7 kmh 29.52 in999.7 mb 0.00 in0.0 mm 0.00 in0.0 mm 0.03 in0.8 mm
08:15 AM 46.9°F8.3°C 39.1°F3.9°C 74% 10.0 mph SW16.1 kmh SW 23.0 mph37.0 kmh 29.52 in999.7 mb 0.00 in0.0 mm 0.00 in0.0 mm 0.03 in0.8 mm
08:20 AM 47.0°F8.3°C 38.5°F3.6°C 72% 9.0 mph SW14.5 kmh SW 25.0 mph40.2 kmh 29.53 in1000.0 mb 0.00 in0.0 mm 0.00 in0.0 mm 0.03 in0.8 mm
08:25 AM 47.1°F8.4°C 38.6°F3.7°C 72% 15.0 mph SW24.1 kmh SW 18.0 mph29.0 kmh 29.53 in1000.0 mb 0.00 in0.0 mm 0.00 in0.0 mm 0.03 in0.8 mm
08:30 AM 47.2°F8.4°C 38.7°F3.7°C 72% 16.0 mph SW25.7 kmh SW 22.0 mph35.4 kmh 29.53 in1000.0 mb 0.00 in0.0 mm 0.00 in0.0 mm 0.03 in0.8 mm
08:35 AM 47.3°F8.5°C 38.0°F3.3°C 70% 9.0 mph SW14.5 kmh SW 24.0 mph38.6 kmh 29.53 in1000.0 mb 0.00 in0.0 mm 0.00 in0.0 mm 0.03 in0.8 mm
08:40 AM 47.4°F8.6°C 38.5°F3.6°C 71% 17.0 mph SW27.4 kmh SW 20.0 mph32.2 kmh 29.53 in1000.0 mb 0.00 in0.0 mm 0.00 in0.0 mm 0.03 in0.8 mm
08:45 AM 47.4°F8.6°C 38.1°F3.4°C 70% 11.0 mph SSW17.7 kmh SSW 23.0 mph37.0 kmh 29.53 in1000.0 mb 0.00 in0.0 mm 0.00 in0.0 mm 0.03 in0.8 mm
08:50 AM 47.6°F8.7°C 38.0°F3.3°C 69% 13.0 mph SW20.9 kmh SW 27.0 mph43.5 kmh 29.53 in1000.0 mb 0.00 in0.0 mm 0.00 in0.0 mm 0.03 in0.8 mm
08:55 AM 47.8°F8.8°C 38.1°F3.4°C 69% 24.0 mph SW38.6 kmh SW 25.0 mph40.2 kmh 29.53 in1000.0 mb 0.00 in0.0 mm 0.00 in0.0 mm 0.03 in0.8 mm
09:00 AM 47.7°F8.7°C 38.0°F3.3°C 69% 25.0 mph SSW40.2 kmh SSW 27.0 mph43.5 kmh 29.54 in1000.3 mb 0.00 in0.0 mm 0.00 in0.0 mm 0.03 in0.8 mm
09:05 AM 47.6°F8.7°C 38.0°F3.3°C 69% 26.0 mph SW41.8 kmh SW 30.0 mph48.3 kmh 29.53 in1000.0 mb 0.00 in0.0 mm 0.00 in0.0 mm 0.03 in0.8 mm
09:10 AM 47.5°F8.6°C 37.9°F3.3°C 69% 14.0 mph SW22.5 kmh SW 26.0 mph41.8 kmh 29.54 in1000.3 mb 0.00 in0.0 mm 0.00 in0.0 mm 0.03 in0.8 mm
09:15 AM 47.6°F8.7°C 37.2°F2.9°C 67% 26.0 mph SW41.8 kmh SW 35.0 mph56.3 kmh 29.54 in1000.3 mb 0.00 in0.0 mm 0.00 in0.0 mm 0.03 in0.8 mm
09:20 AM 47.7°F8.7°C 36.1°F2.3°C 64% 24.0 mph S38.6 kmh S 35.0 mph56.3 kmh 29.53 in1000.0 mb 0.00 in0.0 mm 0.00 in0.0 mm 0.03 in0.8 mm
09:25 AM 47.8°F8.8°C 35.4°F1.9°C 62% 21.0 mph SW33.8 kmh SW 30.0 mph48.3 kmh 29.54 in1000.3 mb 0.00 in0.0 mm 0.00 in0.0 mm 0.03 in0.8 mm
09:30 AM 47.9°F8.8°C 35.9°F2.2°C 63% 12.0 mph SW19.3 kmh SW 30.0 mph48.3 kmh 29.54 in1000.3 mb 0.00 in0.0 mm 0.00 in0.0 mm 0.03 in0.8 mm
09:35 AM 48.1°F8.9°C 34.9°F1.6°C 60% 21.0 mph SSW33.8 kmh SSW 36.0 mph57.9 kmh 29.54 in1000.3 mb 0.00 in0.0 mm 0.00 in0.0 mm 0.03 in0.8 mm
09:40 AM 48.2°F9.0°C 35.8°F2.1°C 62% 10.0 mph SSW16.1 kmh SSW 26.0 mph41.8 kmh 29.54 in1000.3 mb 0.00 in0.0 mm 0.00 in0.0 mm 0.03 in0.8 mm
09:45 AM 48.2°F9.0°C 35.4°F1.9°C 61% 16.0 mph SSW25.7 kmh SSW 29.0 mph46.7 kmh 29.55 in1000.7 mb 0.00 in0.0 mm 0.00 in0.0 mm 0.03 in0.8 mm
09:50 AM 48.2°F9.0°C 34.6°F1.4°C 59% 38.0 mph SW61.2 kmh SW 41.0 mph66.0 kmh 29.54 in1000.3 mb 0.00 in0.0 mm 0.00 in0.0 mm 0.03 in0.8 mm
09:55 AM 48.1°F8.9°C 34.9°F1.6°C 60% 16.0 mph WSW25.7 kmh WSW 25.0 mph40.2 kmh 29.55 in1000.7 mb 0.00 in0.0 mm 0.00 in0.0 mm 0.03 in0.8 mm
10:00 AM 48.1°F8.9°C 34.9°F1.6°C 60% 14.0 mph SW22.5 kmh SW 39.0 mph62.8 kmh 29.55 in1000.7 mb 0.00 in0.0 mm 0.00 in0.0 mm 0.03 in0.8 mm
10:05 AM 48.3°F9.1°C 35.5°F1.9°C 61% 14.0 mph SW22.5 kmh SW 39.0 mph62.8 kmh 29.56 in1001.0 mb 0.00 in0.0 mm 0.00 in0.0 mm 0.03 in0.8 mm
10:10 AM 48.2°F9.0°C 35.0°F1.7°C 60% 21.0 mph SW33.8 kmh SW 32.0 mph51.5 kmh 29.56 in1001.0 mb 0.00 in0.0 mm 0.00 in0.0 mm 0.03 in0.8 mm
10:15 AM 48.3°F9.1°C 35.5°F1.9°C 61% 25.0 mph SW40.2 kmh SW 32.0 mph51.5 kmh 29.57 in1001.4 mb 0.00 in0.0 mm 0.00 in0.0 mm 0.03 in0.8 mm
10:20 AM 48.3°F9.1°C 34.7°F1.5°C 59% 31.0 mph SW49.9 kmh SW 38.0 mph61.2 kmh 29.57 in1001.4 mb 0.00 in0.0 mm 0.00 in0.0 mm 0.03 in0.8 mm
10:25 AM 48.3°F9.1°C 35.1°F1.7°C 60% 10.0 mph SW16.1 kmh SW 20.0 mph32.2 kmh 29.57 in1001.4 mb 0.00 in0.0 mm 0.00 in0.0 mm 0.03 in0.8 mm
10:30 AM 48.5°F9.2°C 34.8°F1.6°C 59% 23.0 mph SW37.0 kmh SW 31.0 mph49.9 kmh 29.57 in1001.4 mb 0.00 in0.0 mm 0.00 in0.0 mm 0.03 in0.8 mm
10:35 AM 48.4°F9.1°C 34.3°F1.3°C 58% 15.0 mph SW24.1 kmh SW 31.0 mph49.9 kmh 29.57 in1001.4 mb 0.00 in0.0 mm 0.00 in0.0 mm 0.03 in0.8 mm
10:40 AM 48.5°F9.2°C 35.3°F1.8°C 60% 18.0 mph SW29.0 kmh SW 26.0 mph41.8 kmh 29.58 in1001.7 mb 0.00 in0.0 mm 0.00 in0.0 mm 0.03 in0.8 mm
10:45 AM 48.7°F9.3°C 35.0°F1.7°C 59% 15.0 mph SW24.1 kmh SW 29.0 mph46.7 kmh 29.58 in1001.7 mb 0.00 in0.0 mm 0.00 in0.0 mm 0.03 in0.8 mm
10:50 AM 48.9°F9.4°C 35.2°F1.8°C 59% 18.0 mph SW29.0 kmh SW 29.0 mph46.7 kmh 29.58 in1001.7 mb 0.00 in0.0 mm 0.00 in0.0 mm 0.03 in0.8 mm
10:55 AM 48.7°F9.3°C 34.6°F1.4°C 58% 19.0 mph SW30.6 kmh SW 25.0 mph40.2 kmh 29.58 in1001.7 mb 0.00 in0.0 mm 0.00 in0.0 mm 0.03 in0.8 mm
11:00 AM 48.9°F9.4°C 34.8°F1.6°C 58% 21.0 mph S33.8 kmh S 36.0 mph57.9 kmh 29.57 in1001.4 mb 0.00 in0.0 mm 0.00 in0.0 mm 0.03 in0.8 mm
11:10 AM 48.8°F9.3°C 34.3°F1.3°C 57% 13.0 mph SSW20.9 kmh SSW 31.0 mph49.9 kmh 29.58 in1001.7 mb 0.00 in0.0 mm 0.00 in0.0 mm 0.03 in0.8 mm
11:15 AM 48.8°F9.3°C 34.3°F1.3°C 57% 16.0 mph SSW25.7 kmh SSW 36.0 mph57.9 kmh 29.58 in1001.7 mb 0.00 in0.0 mm 0.00 in0.0 mm 0.03 in0.8 mm
11:20 AM 48.8°F9.3°C 34.3°F1.3°C 57% 16.0 mph SW25.7 kmh SW 36.0 mph57.9 kmh 29.57 in1001.4 mb 0.00 in0.0 mm 0.00 in0.0 mm 0.03 in0.8 mm
11:25 AM 48.6°F9.2°C 33.6°F0.9°C 56% 15.0 mph SSW24.1 kmh SSW 16.0 mph25.7 kmh 29.58 in1001.7 mb 0.00 in0.0 mm 0.00 in0.0 mm 0.03 in0.8 mm
11:30 AM 48.9°F9.4°C 34.4°F1.3°C 57% 9.0 mph SSW14.5 kmh SSW 23.0 mph37.0 kmh 29.58 in1001.7 mb 0.00 in0.0 mm 0.00 in0.0 mm 0.03 in0.8 mm
11:35 AM 49.0°F9.4°C 34.5°F1.4°C 57% 19.0 mph SW30.6 kmh SW 32.0 mph51.5 kmh 29.58 in1001.7 mb 0.00 in0.0 mm 0.00 in0.0 mm 0.03 in0.8 mm
11:40 AM 49.0°F9.4°C 34.5°F1.4°C 57% 15.0 mph WSW24.1 kmh WSW 28.0 mph45.1 kmh 29.58 in1001.7 mb 0.00 in0.0 mm 0.00 in0.0 mm 0.03 in0.8 mm
11:45 AM 48.9°F9.4°C 34.4°F1.3°C 57% 17.0 mph S27.4 kmh S 32.0 mph51.5 kmh 29.58 in1001.7 mb 0.00 in0.0 mm 0.00 in0.0 mm 0.03 in0.8 mm
11:50 AM 49.3°F9.6°C 34.7°F1.5°C 57% 12.0 mph SW19.3 kmh SW 32.0 mph51.5 kmh 29.59 in1002.0 mb 0.00 in0.0 mm 0.00 in0.0 mm 0.03 in0.8 mm
11:55 AM 50.0°F10.0°C 35.8°F2.1°C 58% 13.0 mph SW20.9 kmh SW 25.0 mph40.2 kmh 29.59 in1002.0 mb 0.00 in0.0 mm 0.00 in0.0 mm 0.03 in0.8 mm
12:00 PM 50.0°F10.0°C 35.8°F2.1°C 58% 15.0 mph SW24.1 kmh SW 25.0 mph40.2 kmh 29.58 in1001.7 mb 0.00 in0.0 mm 0.00 in0.0 mm 0.03 in0.8 mm
12:05 PM 49.7°F9.8°C 36.0°F2.2°C 59% 11.0 mph WSW17.7 kmh WSW 32.0 mph51.5 kmh 29.58 in1001.7 mb 0.00 in0.0 mm 0.00 in0.0 mm 0.03 in0.8 mm
12:10 PM 49.9°F9.9°C 35.3°F1.8°C 57% 15.0 mph SW24.1 kmh SW 29.0 mph46.7 kmh 29.58 in1001.7 mb 0.00 in0.0 mm 0.00 in0.0 mm 0.03 in0.8 mm
12:15 PM 49.9°F9.9°C 35.7°F2.1°C 58% 10.0 mph SW16.1 kmh SW 29.0 mph46.7 kmh 29.58 in1001.7 mb 0.00 in0.0 mm 0.00 in0.0 mm 0.03 in0.8 mm
12:20 PM 50.7°F10.4°C 36.0°F2.2°C 57% 16.0 mph SW25.7 kmh SW 29.0 mph46.7 kmh 29.58 in1001.7 mb 0.00 in0.0 mm 0.00 in0.0 mm 0.03 in0.8 mm
12:25 PM 51.0°F10.6°C 35.0°F1.7°C 54% 12.0 mph SSW19.3 kmh SSW 25.0 mph40.2 kmh 29.57 in1001.4 mb 0.00 in0.0 mm 0.00 in0.0 mm 0.03 in0.8 mm
12:30 PM 51.4°F10.8°C 36.7°F2.6°C 57% 12.0 mph SW19.3 kmh SW 31.0 mph49.9 kmh 29.58 in1001.7 mb 0.00 in0.0 mm 0.00 in0.0 mm 0.03 in0.8 mm
12:35 PM 51.5°F10.8°C 35.4°F1.9°C 54% 16.0 mph SSW25.7 kmh SSW 31.0 mph49.9 kmh 29.57 in1001.4 mb 0.00 in0.0 mm 0.00 in0.0 mm 0.03 in0.8 mm
12:40 PM 51.7°F10.9°C 36.1°F2.3°C 55% 13.0 mph WSW20.9 kmh WSW 22.0 mph35.4 kmh 29.58 in1001.7 mb 0.00 in0.0 mm 0.00 in0.0 mm 0.03 in0.8 mm
12:45 PM 51.7°F10.9°C 36.1°F2.3°C 55% 8.0 mph SW12.9 kmh SW 23.0 mph37.0 kmh 29.57 in1001.4 mb 0.00 in0.0 mm 0.00 in0.0 mm 0.03 in0.8 mm
12:50 PM 51.4°F10.8°C 35.3°F1.8°C 54% 12.0 mph SW19.3 kmh SW 31.0 mph49.9 kmh 29.58 in1001.7 mb 0.00 in0.0 mm 0.00 in0.0 mm 0.03 in0.8 mm
12:55 PM 51.7°F10.9°C 35.1°F1.7°C 53% 13.0 mph SSW20.9 kmh SSW 21.0 mph33.8 kmh 29.57 in1001.4 mb 0.00 in0.0 mm 0.00 in0.0 mm 0.03 in0.8 mm
01:00 PM 52.0°F11.1°C 36.4°F2.4°C 55% 17.0 mph SW27.4 kmh SW 22.0 mph35.4 kmh 29.57 in1001.4 mb 0.00 in0.0 mm 0.00 in0.0 mm 0.03 in0.8 mm
01:05 PM 51.9°F11.1°C 36.7°F2.6°C 56% 14.0 mph SW22.5 kmh SW 22.0 mph35.4 kmh 29.57 in1001.4 mb 0.00 in0.0 mm 0.00 in0.0 mm 0.03 in0.8 mm
01:10 PM 52.3°F11.3°C 36.6°F2.6°C 55% 10.0 mph SSW16.1 kmh SSW 17.0 mph27.4 kmh 29.57 in1001.4 mb 0.00 in0.0 mm 0.00 in0.0 mm 0.03 in0.8 mm
01:15 PM 52.7°F11.5°C 36.5°F2.5°C 54% 14.0 mph SW22.5 kmh SW 19.0 mph30.6 kmh 29.57 in1001.4 mb 0.00 in0.0 mm 0.00 in0.0 mm 0.03 in0.8 mm
01:20 PM 52.7°F11.5°C 36.1°F2.3°C 53% 15.0 mph SSW24.1 kmh SSW 23.0 mph37.0 kmh 29.56 in1001.0 mb 0.00 in0.0 mm 0.00 in0.0 mm 0.03 in0.8 mm
01:25 PM 52.9°F11.6°C 36.7°F2.6°C 54% 9.0 mph SW14.5 kmh SW 14.0 mph22.5 kmh 29.56 in1001.0 mb 0.00 in0.0 mm 0.00 in0.0 mm 0.03 in0.8 mm
01:30 PM 53.1°F11.7°C 38.3°F3.5°C 57% 7.0 mph SW11.3 kmh SW 18.0 mph29.0 kmh 29.56 in1001.0 mb 0.00 in0.0 mm 0.00 in0.0 mm 0.03 in0.8 mm
01:35 PM 53.1°F11.7°C 37.8°F3.2°C 56% 5.0 mph SSW8.0 kmh SSW 18.0 mph29.0 kmh 29.56 in1001.0 mb 0.00 in0.0 mm 0.00 in0.0 mm 0.03 in0.8 mm
01:40 PM 53.5°F11.9°C 37.8°F3.2°C 55% 8.0 mph SW12.9 kmh SW 15.0 mph24.1 kmh 29.55 in1000.7 mb 0.00 in0.0 mm 0.00 in0.0 mm 0.03 in0.8 mm
01:45 PM 53.0°F11.7°C 37.3°F2.9°C 55% 12.0 mph SSW19.3 kmh SSW 17.0 mph27.4 kmh 29.55 in1000.7 mb 0.00 in0.0 mm 0.00 in0.0 mm 0.03 in0.8 mm
01:50 PM 52.8°F11.6°C 36.6°F2.6°C 54% 11.0 mph SW17.7 kmh SW 19.0 mph30.6 kmh 29.55 in1000.7 mb 0.00 in0.0 mm 0.00 in0.0 mm 0.03 in0.8 mm
01:55 PM 52.9°F11.6°C 36.7°F2.6°C 54% 10.0 mph SW16.1 kmh SW 14.0 mph22.5 kmh 29.55 in1000.7 mb 0.00 in0.0 mm 0.00 in0.0 mm 0.03 in0.8 mm
02:00 PM 53.3°F11.8°C 37.1°F2.8°C 54% 7.0 mph SSW11.3 kmh SSW 17.0 mph27.4 kmh 29.55 in1000.7 mb 0.00 in0.0 mm 0.00 in0.0 mm 0.03 in0.8 mm
02:05 PM 53.4°F11.9°C 37.2°F2.9°C 54% 14.0 mph SW22.5 kmh SW 19.0 mph30.6 kmh 29.55 in1000.7 mb 0.00 in0.0 mm 0.00 in0.0 mm 0.03 in0.8 mm
02:10 PM 53.2°F11.8°C 36.5°F2.5°C 53% 15.0 mph SW24.1 kmh SW 16.0 mph25.7 kmh 29.55 in1000.7 mb 0.00 in0.0 mm 0.00 in0.0 mm 0.03 in0.8 mm
02:15 PM 53.3°F11.8°C 35.7°F2.1°C 51% 10.0 mph SW16.1 kmh SW 23.0 mph37.0 kmh 29.55 in1000.7 mb 0.00 in0.0 mm 0.00 in0.0 mm 0.03 in0.8 mm
02:20 PM 53.4°F11.9°C 35.7°F2.1°C 51% 9.0 mph SW14.5 kmh SW 23.0 mph37.0 kmh 29.55 in1000.7 mb 0.00 in0.0 mm 0.00 in0.0 mm 0.03 in0.8 mm
02:25 PM 52.8°F11.6°C 34.7°F1.5°C 50% 17.0 mph SW27.4 kmh SW 20.0 mph32.2 kmh 29.55 in1000.7 mb 0.00 in0.0 mm 0.00 in0.0 mm 0.03 in0.8 mm
02:30 PM 53.2°F11.8°C 35.1°F1.7°C 50% 21.0 mph SW33.8 kmh SW 27.0 mph43.5 kmh 29.54 in1000.3 mb 0.00 in0.0 mm 0.00 in0.0 mm 0.03 in0.8 mm
02:35 PM 54.3°F12.4°C 36.1°F2.3°C 50% 12.0 mph SW19.3 kmh SW 27.0 mph43.5 kmh 29.54 in1000.3 mb 0.00 in0.0 mm 0.00 in0.0 mm 0.03 in0.8 mm
02:40 PM 53.8°F12.1°C 35.6°F2.0°C 50% 9.0 mph SSW14.5 kmh SSW 11.0 mph17.7 kmh 29.54 in1000.3 mb 0.00 in0.0 mm 0.00 in0.0 mm 0.03 in0.8 mm
02:45 PM 54.5°F12.5°C 36.8°F2.7°C 51% 11.0 mph S17.7 kmh S 20.0 mph32.2 kmh 29.53 in1000.0 mb 0.00 in0.0 mm 0.00 in0.0 mm 0.03 in0.8 mm
02:50 PM 54.0°F12.2°C 34.8°F1.6°C 48% 20.0 mph SW32.2 kmh SW 20.0 mph32.2 kmh 29.53 in1000.0 mb 0.00 in0.0 mm 0.00 in0.0 mm 0.03 in0.8 mm
02:55 PM 53.3°F11.8°C 34.7°F1.5°C 49% 16.0 mph SW25.7 kmh SW 21.0 mph33.8 kmh 29.54 in1000.3 mb 0.00 in0.0 mm 0.00 in0.0 mm 0.03 in0.8 mm
03:00 PM 53.2°F11.8°C 34.0°F1.1°C 48% 14.0 mph SW22.5 kmh SW 25.0 mph40.2 kmh 29.53 in1000.0 mb 0.00 in0.0 mm 0.00 in0.0 mm 0.03 in0.8 mm
03:05 PM 53.3°F11.8°C 34.1°F1.2°C 48% 8.0 mph SW12.9 kmh SW 25.0 mph40.2 kmh 29.54 in1000.3 mb 0.00 in0.0 mm 0.00 in0.0 mm 0.03 in0.8 mm
03:10 PM 53.5°F11.9°C 34.3°F1.3°C 48% 10.0 mph SW16.1 kmh SW 14.0 mph22.5 kmh 29.53 in1000.0 mb 0.00 in0.0 mm 0.00 in0.0 mm 0.03 in0.8 mm
03:15 PM 53.6°F12.0°C 34.9°F1.6°C 49% 8.0 mph SW12.9 kmh SW 19.0 mph30.6 kmh 29.53 in1000.0 mb 0.00 in0.0 mm 0.00 in0.0 mm 0.03 in0.8 mm
03:20 PM 54.1°F12.3°C 34.9°F1.6°C 48% 8.0 mph SW12.9 kmh SW 19.0 mph30.6 kmh 29.53 in1000.0 mb 0.00 in0.0 mm 0.00 in0.0 mm 0.03 in0.8 mm
03:25 PM 53.8°F12.1°C 34.6°F1.4°C 48% 12.0 mph SW19.3 kmh SW 16.0 mph25.7 kmh 29.53 in1000.0 mb 0.00 in0.0 mm 0.00 in0.0 mm 0.03 in0.8 mm
03:30 PM 53.8°F12.1°C 35.6°F2.0°C 50% 13.0 mph SW20.9 kmh SW 19.0 mph30.6 kmh 29.53 in1000.0 mb 0.00 in0.0 mm 0.00 in0.0 mm 0.03 in0.8 mm
03:35 PM 53.6°F12.0°C 34.9°F1.6°C 49% 7.0 mph SW11.3 kmh SW 19.0 mph30.6 kmh 29.53 in1000.0 mb 0.00 in0.0 mm 0.00 in0.0 mm 0.03 in0.8 mm
03:40 PM 53.3°F11.8°C 35.7°F2.1°C 51% 10.0 mph SW16.1 kmh SW 11.0 mph17.7 kmh 29.53 in1000.0 mb 0.00 in0.0 mm 0.00 in0.0 mm 0.03 in0.8 mm
03:45 PM 53.2°F11.8°C 36.5°F2.5°C 53% 6.0 mph SW9.7 kmh SW 11.0 mph17.7 kmh 29.53 in1000.0 mb 0.00 in0.0 mm 0.00 in0.0 mm 0.03 in0.8 mm
03:50 PM 53.2°F11.8°C 34.0°F1.1°C 48% 8.0 mph SW12.9 kmh SW 13.0 mph20.9 kmh 29.52 in999.7 mb 0.00 in0.0 mm 0.00 in0.0 mm 0.03 in0.8 mm
03:55 PM 53.2°F11.8°C 35.1°F1.7°C 50% 7.0 mph SSW11.3 kmh SSW 9.0 mph14.5 kmh 29.53 in1000.0 mb 0.00 in0.0 mm 0.00 in0.0 mm 0.03 in0.8 mm
04:00 PM 53.1°F11.7°C 34.5°F1.4°C 49% 8.0 mph SSW12.9 kmh SSW 16.0 mph25.7 kmh 29.52 in999.7 mb 0.00 in0.0 mm 0.00 in0.0 mm 0.03 in0.8 mm
04:05 PM 53.0°F11.7°C 34.4°F1.3°C 49% 13.0 mph SSW20.9 kmh SSW 18.0 mph29.0 kmh 29.52 in999.7 mb 0.00 in0.0 mm 0.00 in0.0 mm 0.03 in0.8 mm
04:10 PM 52.9°F11.6°C 35.3°F1.8°C 51% 8.0 mph SSW12.9 kmh SSW 16.0 mph25.7 kmh 29.52 in999.7 mb 0.00 in0.0 mm 0.00 in0.0 mm 0.03 in0.8 mm
04:15 PM 52.8°F11.6°C 34.7°F1.5°C 50% 9.0 mph SW14.5 kmh SW 20.0 mph32.2 kmh 29.53 in1000.0 mb 0.00 in0.0 mm 0.00 in0.0 mm 0.03 in0.8 mm
04:20 PM 52.5°F11.4°C 35.4°F1.9°C 52% 16.0 mph S25.7 kmh S 20.0 mph32.2 kmh 29.53 in1000.0 mb 0.00 in0.0 mm 0.00 in0.0 mm 0.03 in0.8 mm
04:25 PM 52.2°F11.2°C 35.1°F1.7°C 52% 9.0 mph SSW14.5 kmh SSW 12.0 mph19.3 kmh 29.53 in1000.0 mb 0.00 in0.0 mm 0.00 in0.0 mm 0.03 in0.8 mm
04:30 PM 52.1°F11.2°C 35.0°F1.7°C 52% 8.0 mph SW12.9 kmh SW 21.0 mph33.8 kmh 29.54 in1000.3 mb 0.00 in0.0 mm 0.00 in0.0 mm 0.03 in0.8 mm
04:35 PM 52.1°F11.2°C 34.5°F1.4°C 51% 11.0 mph SSW17.7 kmh SSW 26.0 mph41.8 kmh 29.53 in1000.0 mb 0.00 in0.0 mm 0.00 in0.0 mm 0.03 in0.8 mm
04:40 PM 51.8°F11.0°C 36.2°F2.3°C 55% 10.0 mph S16.1 kmh S 16.0 mph25.7 kmh 29.54 in1000.3 mb 0.00 in0.0 mm 0.00 in0.0 mm 0.03 in0.8 mm
04:45 PM 51.4°F10.8°C 36.7°F2.6°C 57% 11.0 mph SW17.7 kmh SW 16.0 mph25.7 kmh 29.54 in1000.3 mb 0.00 in0.0 mm 0.00 in0.0 mm 0.03 in0.8 mm
04:50 PM 51.0°F10.6°C 36.8°F2.7°C 58% 6.0 mph S9.7 kmh S 16.0 mph25.7 kmh 29.54 in1000.3 mb 0.00 in0.0 mm 0.00 in0.0 mm 0.03 in0.8 mm
04:55 PM 51.0°F10.6°C 37.6°F3.1°C 60% 11.0 mph S17.7 kmh S 19.0 mph30.6 kmh 29.55 in1000.7 mb 0.00 in0.0 mm 0.00 in0.0 mm 0.03 in0.8 mm
05:00 PM 50.5°F10.3°C 38.8°F3.8°C 64% 5.0 mph SW8.0 kmh SW 19.0 mph30.6 kmh 29.54 in1000.3 mb 0.00 in0.0 mm 0.00 in0.0 mm 0.03 in0.8 mm
05:05 PM 50.3°F10.2°C 37.8°F3.2°C 62% 10.0 mph SSW16.1 kmh SSW 19.0 mph30.6 kmh 29.54 in1000.3 mb 0.00 in0.0 mm 0.00 in0.0 mm 0.03 in0.8 mm
05:10 PM 50.3°F10.2°C 37.0°F2.8°C 60% 8.0 mph SSW12.9 kmh SSW 11.0 mph17.7 kmh 29.54 in1000.3 mb 0.00 in0.0 mm 0.00 in0.0 mm 0.03 in0.8 mm
05:15 PM 50.4°F10.2°C 37.1°F2.8°C 60% 5.0 mph SSW8.0 kmh SSW 18.0 mph29.0 kmh 29.55 in1000.7 mb 0.00 in0.0 mm 0.00 in0.0 mm 0.03 in0.8 mm
05:20 PM 50.4°F10.2°C 37.9°F3.3°C 62% 6.0 mph SW9.7 kmh SW 18.0 mph29.0 kmh 29.56 in1001.0 mb 0.00 in0.0 mm 0.00 in0.0 mm 0.03 in0.8 mm
05:25 PM 49.1°F9.5°C 37.9°F3.3°C 65% 18.0 mph SW29.0 kmh SW 32.0 mph51.5 kmh 29.58 in1001.7 mb 0.00 in0.0 mm 0.00 in0.0 mm 0.03 in0.8 mm
05:30 PM 44.6°F7.0°C 36.5°F2.5°C 73% 17.0 mph SSW27.4 kmh SSW 39.0 mph62.8 kmh 29.60 in1002.4 mb 0.02 in0.5 mm 0.24 in6.1 mm 0.05 in1.3 mm
05:35 PM 42.4°F5.8°C 36.7°F2.6°C 80% 14.0 mph SW22.5 kmh SW 39.0 mph62.8 kmh 29.60 in1002.4 mb 0.05 in1.3 mm 0.36 in9.1 mm 0.08 in2.0 mm
05:40 PM 41.7°F5.4°C 37.2°F2.9°C 84% 8.0 mph S12.9 kmh S 10.0 mph16.1 kmh 29.60 in1002.4 mb 0.07 in1.8 mm 0.24 in6.1 mm 0.10 in2.5 mm
05:45 PM 41.5°F5.3°C 37.3°F2.9°C 85% 10.0 mph SSW16.1 kmh SSW 15.0 mph24.1 kmh 29.60 in1002.4 mb 0.07 in1.8 mm 0.00 in0.0 mm 0.10 in2.5 mm
05:50 PM 41.5°F5.3°C 37.3°F2.9°C 85% 8.0 mph S12.9 kmh S 15.0 mph24.1 kmh 29.61 in1002.7 mb 0.07 in1.8 mm 0.00 in0.0 mm 0.10 in2.5 mm
05:55 PM 41.6°F5.3°C 37.4°F3.0°C 85% 4.0 mph SSW6.4 kmh SSW 13.0 mph20.9 kmh 29.60 in1002.4 mb 0.07 in1.8 mm 0.00 in0.0 mm 0.10 in2.5 mm
06:00 PM 41.8°F5.4°C 37.3°F2.9°C 84% 16.0 mph S25.7 kmh S 22.0 mph35.4 kmh 29.60 in1002.4 mb 0.07 in1.8 mm 0.00 in0.0 mm 0.10 in2.5 mm
06:05 PM 42.2°F5.7°C 37.7°F3.2°C 84% 6.0 mph SSW9.7 kmh SSW 22.0 mph35.4 kmh 29.59 in1002.0 mb 0.07 in1.8 mm 0.00 in0.0 mm 0.10 in2.5 mm
06:10 PM 42.4°F5.8°C 37.6°F3.1°C 83% 6.0 mph SSW9.7 kmh SSW 13.0 mph20.9 kmh 29.58 in1001.7 mb 0.07 in1.8 mm 0.00 in0.0 mm 0.10 in2.5 mm
06:15 PM 42.8°F6.0°C 38.0°F3.3°C 83% 6.0 mph S9.7 kmh S 13.0 mph20.9 kmh 29.59 in1002.0 mb 0.07 in1.8 mm 0.00 in0.0 mm 0.10 in2.5 mm
06:20 PM 43.0°F6.1°C 38.2°F3.4°C 83% 6.0 mph S9.7 kmh S 13.0 mph20.9 kmh 29.59 in1002.0 mb 0.07 in1.8 mm 0.00 in0.0 mm 0.10 in2.5 mm
06:25 PM 43.2°F6.2°C 37.8°F3.2°C 81% 8.0 mph SSW12.9 kmh SSW 9.0 mph14.5 kmh 29.59 in1002.0 mb 0.07 in1.8 mm 0.00 in0.0 mm 0.10 in2.5 mm
06:30 PM 43.4°F6.3°C 38.0°F3.3°C 81% 9.0 mph S14.5 kmh S 13.0 mph20.9 kmh 29.60 in1002.4 mb 0.07 in1.8 mm 0.00 in0.0 mm 0.10 in2.5 mm
06:35 PM 43.8°F6.6°C 38.4°F3.6°C 81% 5.0 mph S8.0 kmh S 13.0 mph20.9 kmh 29.60 in1002.4 mb 0.07 in1.8 mm 0.00 in0.0 mm 0.10 in2.5 mm
06:40 PM 44.3°F6.8°C 38.2°F3.4°C 79% 12.0 mph S19.3 kmh S 14.0 mph22.5 kmh 29.61 in1002.7 mb 0.01 in0.3 mm 0.00 in0.0 mm 0.10 in2.5 mm
06:45 PM 44.5°F6.9°C 37.8°F3.2°C 77% 9.0 mph S14.5 kmh S 14.0 mph22.5 kmh 29.61 in1002.7 mb 0.01 in0.3 mm 0.00 in0.0 mm 0.10 in2.5 mm
06:50 PM 44.4°F6.9°C 37.7°F3.2°C 77% 5.0 mph S8.0 kmh S 14.0 mph22.5 kmh 29.62 in1003.0 mb 0.01 in0.3 mm 0.00 in0.0 mm 0.10 in2.5 mm
06:55 PM 44.4°F6.9°C 38.0°F3.3°C 78% 3.0 mph S4.8 kmh S 10.0 mph16.1 kmh 29.62 in1003.0 mb 0.00 in0.0 mm 0.00 in0.0 mm 0.10 in2.5 mm
07:00 PM 44.3°F6.8°C 37.9°F3.3°C 78% 12.0 mph S19.3 kmh S 14.0 mph22.5 kmh 29.62 in1003.0 mb 0.00 in0.0 mm 0.00 in0.0 mm 0.10 in2.5 mm
07:05 PM 44.4°F6.9°C 37.7°F3.2°C 77% 10.0 mph S16.1 kmh S 15.0 mph24.1 kmh 29.62 in1003.0 mb 0.00 in0.0 mm 0.00 in0.0 mm 0.10 in2.5 mm
07:10 PM 44.6°F7.0°C 37.2°F2.9°C 75% 9.0 mph S14.5 kmh S 17.0 mph27.4 kmh 29.63 in1003.4 mb 0.00 in0.0 mm 0.00 in0.0 mm 0.10 in2.5 mm
07:15 PM 44.8°F7.1°C 37.4°F3.0°C 75% 15.0 mph S24.1 kmh S 17.0 mph27.4 kmh 29.63 in1003.4 mb 0.00 in0.0 mm 0.00 in0.0 mm 0.10 in2.5 mm
07:20 PM 44.8°F7.1°C 37.0°F2.8°C 74% 11.0 mph S17.7 kmh S 17.0 mph27.4 kmh 29.64 in1003.7 mb 0.00 in0.0 mm 0.00 in0.0 mm 0.10 in2.5 mm
07:25 PM 44.8°F7.1°C 36.7°F2.6°C 73% 7.0 mph S11.3 kmh S 15.0 mph24.1 kmh 29.64 in1003.7 mb 0.00 in0.0 mm 0.00 in0.0 mm 0.10 in2.5 mm
07:30 PM 44.9°F7.2°C 36.8°F2.7°C 73% 7.0 mph SSW11.3 kmh SSW 15.0 mph24.1 kmh 29.64 in1003.7 mb 0.00 in0.0 mm 0.00 in0.0 mm 0.10 in2.5 mm
07:35 PM 45.0°F7.2°C 35.8°F2.1°C 70% 10.0 mph SW16.1 kmh SW 17.0 mph27.4 kmh 29.64 in1003.7 mb 0.00 in0.0 mm 0.00 in0.0 mm 0.10 in2.5 mm
07:40 PM 45.6°F7.6°C 32.9°F0.5°C 61% 26.0 mph SW41.8 kmh SW 31.0 mph49.9 kmh 29.64 in1003.7 mb 0.00 in0.0 mm 0.00 in0.0 mm 0.10 in2.5 mm
07:45 PM 45.9°F7.7°C 32.4°F0.2°C 59% 29.0 mph S46.7 kmh S 31.0 mph49.9 kmh 29.65 in1004.1 mb 0.00 in0.0 mm 0.00 in0.0 mm 0.10 in2.5 mm
07:50 PM 46.1°F7.8°C 32.2°F0.1°C 58% 18.0 mph S29.0 kmh S 34.0 mph54.7 kmh 29.64 in1003.7 mb 0.00 in0.0 mm 0.00 in0.0 mm 0.10 in2.5 mm
07:55 PM 46.2°F7.9°C 32.3°F0.2°C 58% 15.0 mph SSW24.1 kmh SSW 21.0 mph33.8 kmh 29.66 in1004.4 mb 0.00 in0.0 mm 0.00 in0.0 mm 0.10 in2.5 mm
08:00 PM 46.1°F7.8°C 32.2°F0.1°C 58% 15.0 mph SW24.1 kmh SW 23.0 mph37.0 kmh 29.66 in1004.4 mb 0.00 in0.0 mm 0.00 in0.0 mm 0.10 in2.5 mm
08:05 PM 46.0°F7.8°C 32.1°F0.1°C 58% 12.0 mph SSW19.3 kmh SSW 24.0 mph38.6 kmh 29.67 in1004.7 mb 0.00 in0.0 mm 0.00 in0.0 mm 0.10 in2.5 mm
08:10 PM 45.9°F7.7°C 32.4°F0.2°C 59% 21.0 mph SW33.8 kmh SW 21.0 mph33.8 kmh 29.67 in1004.7 mb 0.00 in0.0 mm 0.00 in0.0 mm 0.10 in2.5 mm
08:15 PM 45.8°F7.7°C 32.3°F0.2°C 59% 9.0 mph SW14.5 kmh SW 21.0 mph33.8 kmh 29.68 in1005.1 mb 0.00 in0.0 mm 0.00 in0.0 mm 0.10 in2.5 mm
08:20 PM 45.8°F7.7°C 31.9°F-0.1°C 58% 15.0 mph SSW24.1 kmh SSW 26.0 mph41.8 kmh 29.68 in1005.1 mb 0.00 in0.0 mm 0.00 in0.0 mm 0.10 in2.5 mm
08:25 PM 45.7°F7.6°C 31.8°F-0.1°C 58% 27.0 mph SW43.5 kmh SW 27.0 mph43.5 kmh 29.68 in1005.1 mb 0.00 in0.0 mm 0.00 in0.0 mm 0.10 in2.5 mm
08:30 PM 45.7°F7.6°C 32.2°F0.1°C 59% 12.0 mph SW19.3 kmh SW 27.0 mph43.5 kmh 29.69 in1005.4 mb 0.00 in0.0 mm 0.00 in0.0 mm 0.10 in2.5 mm
08:35 PM 45.5°F7.5°C 32.0°F0.0°C 59% 19.0 mph SSW30.6 kmh SSW 27.0 mph43.5 kmh 29.69 in1005.4 mb 0.00 in0.0 mm 0.00 in0.0 mm 0.10 in2.5 mm
08:40 PM 45.4°F7.4°C 31.5°F-0.3°C 58% 19.0 mph SSW30.6 kmh SSW 21.0 mph33.8 kmh 29.70 in1005.8 mb 0.00 in0.0 mm 0.00 in0.0 mm 0.10 in2.5 mm
08:45 PM 45.3°F7.4°C 31.4°F-0.3°C 58% 9.0 mph SW14.5 kmh SW 22.0 mph35.4 kmh 29.70 in1005.8 mb 0.00 in0.0 mm 0.00 in0.0 mm 0.10 in2.5 mm
08:50 PM 45.2°F7.3°C 31.7°F-0.2°C 59% 9.0 mph SW14.5 kmh SW 27.0 mph43.5 kmh 29.70 in1005.8 mb 0.00 in0.0 mm 0.00 in0.0 mm 0.10 in2.5 mm
08:55 PM 45.0°F7.2°C 31.6°F-0.2°C 59% 16.0 mph S25.7 kmh S 20.0 mph32.2 kmh 29.71 in1006.1 mb 0.00 in0.0 mm 0.00 in0.0 mm 0.10 in2.5 mm
09:00 PM 44.9°F7.2°C 31.9°F-0.1°C 60% 8.0 mph S12.9 kmh S 20.0 mph32.2 kmh 29.71 in1006.1 mb 0.00 in0.0 mm 0.00 in0.0 mm 0.10 in2.5 mm
09:05 PM 44.7°F7.1°C 31.7°F-0.2°C 60% 14.0 mph SW22.5 kmh SW 20.0 mph32.2 kmh 29.71 in1006.1 mb 0.00 in0.0 mm 0.00 in0.0 mm 0.10 in2.5 mm
09:10 PM 44.6°F7.0°C 30.8°F-0.7°C 58% 22.0 mph SSE35.4 kmh SSE 22.0 mph35.4 kmh 29.71 in1006.1 mb 0.00 in0.0 mm 0.00 in0.0 mm 0.10 in2.5 mm
09:15 PM 44.6°F7.0°C 30.3°F-0.9°C 57% 8.0 mph SSW12.9 kmh SSW 24.0 mph38.6 kmh 29.71 in1006.1 mb 0.00 in0.0 mm 0.00 in0.0 mm 0.10 in2.5 mm
09:20 PM 44.5°F6.9°C 31.1°F-0.5°C 59% 9.0 mph SSW14.5 kmh SSW 24.0 mph38.6 kmh 29.71 in1006.1 mb 0.00 in0.0 mm 0.00 in0.0 mm 0.10 in2.5 mm
09:25 PM 44.5°F6.9°C 30.2°F-1.0°C 57% 17.0 mph S27.4 kmh S 21.0 mph33.8 kmh 29.71 in1006.1 mb 0.00 in0.0 mm 0.00 in0.0 mm 0.10 in2.5 mm
09:30 PM 44.6°F7.0°C 30.3°F-0.9°C 57% 17.0 mph SSW27.4 kmh SSW 29.0 mph46.7 kmh 29.71 in1006.1 mb 0.00 in0.0 mm 0.00 in0.0 mm 0.10 in2.5 mm
09:35 PM 44.6°F7.0°C 29.9°F-1.2°C 56% 13.0 mph SW20.9 kmh SW 29.0 mph46.7 kmh 29.72 in1006.4 mb 0.00 in0.0 mm 0.00 in0.0 mm 0.10 in2.5 mm
09:40 PM 44.6°F7.0°C 30.3°F-0.9°C 57% 13.0 mph SW20.9 kmh SW 21.0 mph33.8 kmh 29.73 in1006.8 mb 0.00 in0.0 mm 0.00 in0.0 mm 0.10 in2.5 mm
09:45 PM 44.5°F6.9°C 29.4°F-1.4°C 55% 22.0 mph SSW35.4 kmh SSW 25.0 mph40.2 kmh 29.73 in1006.8 mb 0.00 in0.0 mm 0.00 in0.0 mm 0.10 in2.5 mm
09:50 PM 44.5°F6.9°C 28.5°F-1.9°C 53% 9.0 mph SSW14.5 kmh SSW 28.0 mph45.1 kmh 29.73 in1006.8 mb 0.00 in0.0 mm 0.00 in0.0 mm 0.10 in2.5 mm
09:55 PM 44.4°F6.9°C 27.4°F-2.6°C 51% 11.0 mph SW17.7 kmh SW 21.0 mph33.8 kmh 29.73 in1006.8 mb 0.00 in0.0 mm 0.00 in0.0 mm 0.10 in2.5 mm
10:00 PM 44.4°F6.9°C 28.8°F-1.8°C 54% 12.0 mph SW19.3 kmh SW 25.0 mph40.2 kmh 29.74 in1007.1 mb 0.00 in0.0 mm 0.00 in0.0 mm 0.10 in2.5 mm
10:05 PM 44.3°F6.8°C 28.3°F-2.1°C 53% 16.0 mph SW25.7 kmh SW 27.0 mph43.5 kmh 29.74 in1007.1 mb 0.00 in0.0 mm 0.00 in0.0 mm 0.10 in2.5 mm
10:10 PM 44.3°F6.8°C 27.8°F-2.3°C 52% 21.0 mph WSW33.8 kmh WSW 26.0 mph41.8 kmh 29.74 in1007.1 mb 0.00 in0.0 mm 0.00 in0.0 mm 0.10 in2.5 mm
10:15 PM 44.2°F6.8°C 28.2°F-2.1°C 53% 18.0 mph SW29.0 kmh SW 26.0 mph41.8 kmh 29.75 in1007.5 mb 0.00 in0.0 mm 0.00 in0.0 mm 0.10 in2.5 mm
10:20 PM 44.1°F6.7°C 27.6°F-2.4°C 52% 14.0 mph SSW22.5 kmh SSW 29.0 mph46.7 kmh 29.74 in1007.1 mb 0.00 in0.0 mm 0.00 in0.0 mm 0.10 in2.5 mm
10:25 PM 44.1°F6.7°C 27.6°F-2.4°C 52% 13.0 mph SW20.9 kmh SW 27.0 mph43.5 kmh 29.74 in1007.1 mb 0.00 in0.0 mm 0.00 in0.0 mm 0.10 in2.5 mm
10:30 PM 44.0°F6.7°C 28.4°F-2.0°C 54% 15.0 mph SSW24.1 kmh SSW 27.0 mph43.5 kmh 29.75 in1007.5 mb 0.00 in0.0 mm 0.00 in0.0 mm 0.10 in2.5 mm
10:35 PM 43.9°F6.6°C 27.9°F-2.3°C 53% 12.0 mph SSW19.3 kmh SSW 27.0 mph43.5 kmh 29.75 in1007.5 mb 0.00 in0.0 mm 0.00 in0.0 mm 0.10 in2.5 mm
10:40 PM 43.8°F6.6°C 28.3°F-2.1°C 54% 9.0 mph SSW14.5 kmh SSW 16.0 mph25.7 kmh 29.75 in1007.5 mb 0.00 in0.0 mm 0.00 in0.0 mm 0.10 in2.5 mm
10:45 PM 43.7°F6.5°C 28.2°F-2.1°C 54% 6.0 mph SSW9.7 kmh SSW 19.0 mph30.6 kmh 29.75 in1007.5 mb 0.00 in0.0 mm 0.00 in0.0 mm 0.10 in2.5 mm
10:50 PM 43.5°F6.4°C 28.4°F-2.0°C 55% 8.0 mph SSW12.9 kmh SSW 19.0 mph30.6 kmh 29.75 in1007.5 mb 0.00 in0.0 mm 0.00 in0.0 mm 0.10 in2.5 mm
10:55 PM 43.4°F6.3°C 28.3°F-2.1°C 55% 9.0 mph SW14.5 kmh SW 15.0 mph24.1 kmh 29.75 in1007.5 mb 0.00 in0.0 mm 0.00 in0.0 mm 0.10 in2.5 mm
11:00 PM 43.3°F6.3°C 27.8°F-2.3°C 54% 11.0 mph SSW17.7 kmh SSW 20.0 mph32.2 kmh 29.75 in1007.5 mb 0.00 in0.0 mm 0.00 in0.0 mm 0.10 in2.5 mm
11:05 PM 43.4°F6.3°C 27.9°F-2.3°C 54% 17.0 mph SSW27.4 kmh SSW 25.0 mph40.2 kmh 29.76 in1007.8 mb 0.00 in0.0 mm 0.00 in0.0 mm 0.10 in2.5 mm
11:10 PM 43.4°F6.3°C 27.9°F-2.3°C 54% 7.0 mph SSW11.3 kmh SSW 12.0 mph19.3 kmh 29.76 in1007.8 mb 0.00 in0.0 mm 0.00 in0.0 mm 0.10 in2.5 mm
11:15 PM 43.4°F6.3°C 28.3°F-2.1°C 55% 13.0 mph SSW20.9 kmh SSW 21.0 mph33.8 kmh 29.77 in1008.1 mb 0.00 in0.0 mm 0.00 in0.0 mm 0.10 in2.5 mm
11:20 PM 43.3°F6.3°C 28.7°F-1.8°C 56% 8.0 mph SSW12.9 kmh SSW 25.0 mph40.2 kmh 29.77 in1008.1 mb 0.00 in0.0 mm 0.00 in0.0 mm 0.10 in2.5 mm
11:25 PM 43.1°F6.2°C 28.9°F-1.7°C 57% 8.0 mph SSW12.9 kmh SSW 13.0 mph20.9 kmh 29.77 in1008.1 mb 0.00 in0.0 mm 0.00 in0.0 mm 0.10 in2.5 mm
11:30 PM 42.9°F6.1°C 27.9°F-2.3°C 55% 9.0 mph SSW14.5 kmh SSW 23.0 mph37.0 kmh 29.77 in1008.1 mb 0.00 in0.0 mm 0.00 in0.0 mm 0.10 in2.5 mm
11:35 PM 43.0°F6.1°C 27.5°F-2.5°C 54% 7.0 mph SW11.3 kmh SW 25.0 mph40.2 kmh 29.77 in1008.1 mb 0.00 in0.0 mm 0.00 in0.0 mm 0.10 in2.5 mm
11:40 PM 43.0°F6.1°C 28.8°F-1.8°C 57% 11.0 mph SSW17.7 kmh SSW 20.0 mph32.2 kmh 29.77 in1008.1 mb 0.00 in0.0 mm 0.00 in0.0 mm 0.10 in2.5 mm
11:45 PM 43.0°F6.1°C 28.8°F-1.8°C 57% 10.0 mph SSW16.1 kmh SSW 20.0 mph32.2 kmh 29.77 in1008.1 mb 0.00 in0.0 mm 0.00 in0.0 mm 0.10 in2.5 mm
11:50 PM 42.8°F6.0°C 28.6°F-1.9°C 57% 7.0 mph SSW11.3 kmh SSW 20.0 mph32.2 kmh 29.78 in1008.5 mb 0.00 in0.0 mm 0.00 in0.0 mm 0.10 in2.5 mm
11:55 PM 42.8°F6.0°C 29.1°F-1.6°C 58% 4.0 mph SSW6.4 kmh SSW 10.0 mph16.1 kmh 29.78 in1008.5 mb 0.00 in0.0 mm 0.00 in0.0 mm 0.10 in2.5 mm